TimeCST,TemperatureF,Dew PointF,Humidity,Sea Level PressureIn,VisibilityMPH,Wind Direction,Wind SpeedMPH,Gust SpeedMPH,PrecipitationIn,Events,Conditions,WindDirDegrees,DateUTC
12:15 AM,17.1,12.2,81,30.41,10.0,West,3.5,-,N/A,,Clear,270,2013-01-18 06:15:00
12:35 AM,18.9,12.4,76,30.41,10.0,WSW,3.5,-,N/A,,Clear,250,2013-01-18 06:35:00
12:55 AM,18.9,12.6,76,30.41,10.0,West,3.5,-,N/A,,Clear,260,2013-01-18 06:55:00
1:15 AM,18.1,12.2,78,30.42,10.0,West,3.5,-,N/A,,Clear,270,2013-01-18 07:15:00
1:35 AM,17.8,12.4,79,30.43,10.0,West,4.6,-,N/A,,Clear,260,2013-01-18 07:35:00
1:55 AM,19.2,14.0,80,30.43,10.0,West,4.6,-,N/A,,Mostly Cloudy,260,2013-01-18 07:55:00
2:15 AM,19.4,14.0,80,30.43,10.0,Calm,Calm,-,N/A,,Mostly Cloudy,0,2013-01-18 08:15:00
2:35 AM,17.8,13.3,83,30.43,10.0,Calm,Calm,-,N/A,,Scattered Clouds,0,2013-01-18 08:35:00
2:55 AM,16.5,12.4,84,30.43,10.0,Calm,Calm,-,N/A,,Clear,0,2013-01-18 08:55:00
3:15 AM,15.8,12.6,87,30.42,10.0,Calm,Calm,-,N/A,,Clear,0,2013-01-18 09:15:00
3:35 AM,16.2,12.9,87,30.42,10.0,South,3.5,-,N/A,,Clear,190,2013-01-18 09:35:00
3:55 AM,16.3,13.1,87,30.43,10.0,SSW,4.6,-,N/A,,Clear,200,2013-01-18 09:55:00
4:15 AM,15.1,12.2,88,30.42,10.0,South,5.8,-,N/A,,Clear,180,2013-01-18 10:15:00
4:35 AM,15.3,12.2,88,30.41,10.0,South,4.6,-,N/A,,Clear,180,2013-01-18 10:35:00
4:55 AM,14.4,11.3,88,30.41,10.0,South,5.8,-,N/A,,Clear,180,2013-01-18 10:55:00
5:15 AM,14.9,12.0,88,30.41,10.0,South,4.6,-,N/A,,Clear,190,2013-01-18 11:15:00
5:35 AM,15.4,12.7,89,30.41,10.0,SSW,5.8,-,N/A,,Clear,200,2013-01-18 11:35:00
5:55 AM,17.1,14.0,88,30.41,10.0,South,4.6,-,N/A,,Clear,190,2013-01-18 11:55:00
6:15 AM,17.4,14.5,88,30.40,10.0,SSW,3.5,-,N/A,,Clear,200,2013-01-18 12:15:00
6:35 AM,18.1,14.9,87,30.40,10.0,South,6.9,-,N/A,,Clear,190,2013-01-18 12:35:00
6:55 AM,19.0,15.8,87,30.39,10.0,South,6.9,-,N/A,,Clear,190,2013-01-18 12:55:00
7:15 AM,20.3,16.7,86,30.39,10.0,South,6.9,-,N/A,,Clear,190,2013-01-18 13:15:00
7:35 AM,21.6,17.6,85,30.37,10.0,South,9.2,-,N/A,,Mostly Cloudy,180,2013-01-18 13:35:00
7:55 AM,23.0,18.1,82,30.37,10.0,SSW,10.4,-,N/A,,Scattered Clouds,200,2013-01-18 13:55:00
8:15 AM,23.7,18.3,80,30.37,10.0,SSW,12.7,-,N/A,,Scattered Clouds,200,2013-01-18 14:15:00
8:35 AM,24.6,18.5,78,30.37,10.0,SSW,10.4,-,N/A,,Scattered Clouds,200,2013-01-18 14:35:00
8:55 AM,25.5,19.0,76,30.36,10.0,South,11.5,-,N/A,,Clear,190,2013-01-18 14:55:00
9:15 AM,26.6,19.4,74,30.36,10.0,South,11.5,-,N/A,,Clear,190,2013-01-18 15:15:00
9:35 AM,28.2,20.3,72,30.34,10.0,South,15.0,18.4,N/A,,Clear,180,2013-01-18 15:35:00
9:55 AM,29.7,20.7,69,30.34,10.0,SSW,15.0,19.6,N/A,,Scattered Clouds,200,2013-01-18 15:55:00
10:15 AM,31.1,21.6,68,30.33,10.0,SSW,16.1,21.9,N/A,,Mostly Cloudy,200,2013-01-18 16:15:00
10:35 AM,32.0,21.6,65,30.32,10.0,SSW,18.4,25.3,N/A,,Mostly Cloudy,200,2013-01-18 16:35:00
10:55 AM,33.8,21.9,62,30.31,10.0,SSW,21.9,26.5,N/A,,Clear,210,2013-01-18 16:55:00
11:15 AM,34.7,22.3,61,30.28,10.0,SSW,24.2,31.1,N/A,,Clear,200,2013-01-18 17:15:00
11:35 AM,34.9,21.9,59,30.26,10.0,SSW,24.2,32.2,N/A,,Clear,210,2013-01-18 17:35:00
11:55 AM,35.4,22.1,58,30.24,10.0,SSW,25.3,31.1,N/A,,Clear,200,2013-01-18 17:55:00
12:15 PM,38.1,23.0,55,30.22,10.0,SSW,24.2,32.2,N/A,,Clear,210,2013-01-18 18:15:00
12:35 PM,38.5,22.8,53,30.20,10.0,SSW,27.6,35.7,N/A,,Clear,210,2013-01-18 18:35:00
12:55 PM,39.2,23.4,53,30.18,10.0,SSW,23.0,32.2,N/A,,Clear,210,2013-01-18 18:55:00
1:15 PM,39.7,23.9,53,30.16,10.0,SSW,29.9,34.5,N/A,,Clear,210,2013-01-18 19:15:00
1:35 PM,39.4,24.6,56,30.15,10.0,SSW,26.5,38.0,N/A,,Clear,200,2013-01-18 19:35:00
1:55 PM,39.4,25.0,56,30.13,10.0,South,26.5,38.0,N/A,,Clear,190,2013-01-18 19:55:00
2:15 PM,39.6,25.2,56,30.11,10.0,SSW,25.3,36.8,N/A,,Clear,200,2013-01-18 20:15:00
2:35 PM,39.7,25.3,56,30.10,10.0,SSW,26.5,34.5,N/A,,Clear,200,2013-01-18 20:35:00
2:55 PM,39.4,25.3,57,30.09,10.0,SSW,28.8,35.7,N/A,,Clear,200,2013-01-18 20:55:00
3:15 PM,39.4,25.3,57,30.07,10.0,SSW,29.9,35.7,N/A,,Clear,200,2013-01-18 21:15:00
3:35 PM,39.2,25.5,58,30.06,10.0,SSW,26.5,31.1,N/A,,Clear,200,2013-01-18 21:35:00
3:55 PM,38.7,25.3,59,30.04,10.0,South,25.3,34.5,N/A,,Clear,190,2013-01-18 21:55:00
4:15 PM,38.3,24.8,58,30.03,10.0,South,25.3,33.4,N/A,,Clear,190,2013-01-18 22:15:00
4:35 PM,37.6,25.3,61,30.01,10.0,South,25.3,35.7,N/A,,Clear,180,2013-01-18 22:35:00
4:55 PM,36.7,25.5,64,30.01,10.0,South,28.8,36.8,N/A,,Clear,190,2013-01-18 22:55:00
5:15 PM,36.3,25.5,65,30.01,10.0,South,20.7,31.1,N/A,,Clear,190,2013-01-18 23:15:00
5:35 PM,36.1,25.5,65,30.02,10.0,SSW,20.7,32.2,N/A,,Clear,200,2013-01-18 23:35:00
5:55 PM,36.0,25.7,66,30.02,10.0,SSW,21.9,32.2,N/A,,Clear,200,2013-01-18 23:55:00
6:15 PM,36.1,26.1,67,30.02,10.0,SSW,24.2,32.2,N/A,,Clear,200,2013-01-19 00:15:00
6:35 PM,36.0,26.1,67,30.03,10.0,SSW,18.4,29.9,N/A,,Clear,210,2013-01-19 00:35:00
6:55 PM,35.6,26.4,69,30.03,10.0,SSW,18.4,29.9,N/A,,Clear,210,2013-01-19 00:55:00
7:15 PM,35.6,26.6,70,30.02,10.0,SSW,18.4,26.5,N/A,,Clear,210,2013-01-19 01:15:00
7:35 PM,35.8,26.6,69,30.02,10.0,SSW,17.3,24.2,N/A,,Clear,210,2013-01-19 01:35:00
7:55 PM,36.1,27.0,69,30.01,10.0,SSW,17.3,25.3,N/A,,Clear,200,2013-01-19 01:55:00
8:15 PM,36.5,27.1,69,30.00,10.0,SSW,19.6,25.3,N/A,,Clear,200,2013-01-19 02:15:00
8:35 PM,37.4,26.6,65,30.00,10.0,SSW,18.4,23.0,N/A,,Clear,210,2013-01-19 02:35:00
8:55 PM,36.5,27.1,69,30.00,10.0,SSW,20.7,26.5,N/A,,Clear,210,2013-01-19 02:55:00
9:15 PM,36.7,27.3,69,29.99,10.0,SW,19.6,26.5,N/A,,Clear,220,2013-01-19 03:15:00
9:35 PM,36.5,27.3,69,29.99,10.0,SSW,20.7,27.6,N/A,,Clear,210,2013-01-19 03:35:00
9:55 PM,36.5,27.3,69,29.99,10.0,SSW,18.4,26.5,N/A,,Clear,210,2013-01-19 03:55:00
10:15 PM,36.0,27.3,71,29.98,10.0,SSW,17.3,24.2,N/A,,Clear,210,2013-01-19 04:15:00
10:35 PM,35.8,27.3,71,29.98,10.0,SW,15.0,21.9,N/A,,Clear,220,2013-01-19 04:35:00
10:55 PM,36.1,27.3,70,29.97,10.0,SSW,18.4,-,N/A,,Clear,210,2013-01-19 04:55:00
11:15 PM,36.0,27.3,71,29.97,10.0,SW,17.3,-,N/A,,Clear,220,2013-01-19 05:15:00
11:35 PM,35.6,27.5,72,29.97,10.0,SW,13.8,18.4,N/A,,Clear,220,2013-01-19 05:35:00
11:55 PM,35.8,27.3,71,29.96,10.0,SW,16.1,20.7,N/A,,Clear,220,2013-01-19 05:55:00